createdAt,value
2023-01-31T00:01:28.714Z,33.47
2023-01-31T00:03:57.439Z,35.40
2023-01-31T00:06:37.560Z,37.13
2023-01-31T00:09:06.450Z,34.50
2023-01-31T00:11:34.157Z,30.85
2023-01-31T00:14:01.906Z,35.33
2023-01-31T00:16:28.662Z,26.60
2023-01-31T00:18:55.368Z,33.47
2023-01-31T00:21:25.204Z,44.60
2023-01-31T00:23:53.594Z,28.95
2023-01-31T00:26:22.379Z,33.85
2023-01-31T00:28:50.437Z,42.08
2023-01-31T00:31:18.700Z,36.42
2023-01-31T00:33:47.287Z,42.10
2023-01-31T00:36:16.585Z,34.75
2023-01-31T00:38:43.937Z,37.00
2023-01-31T00:41:11.882Z,30.40
2023-01-31T00:43:38.698Z,28.35
2023-01-31T00:46:05.624Z,33.10
2023-01-31T00:48:32.732Z,33.45
2023-01-31T00:50:59.444Z,30.48
2023-01-31T00:53:26.183Z,28.00
2023-01-31T00:55:54.729Z,29.80
2023-01-31T00:58:21.964Z,27.67
2023-01-31T01:00:49.116Z,31.77
2023-01-31T01:03:15.850Z,31.45
2023-01-31T01:05:42.574Z,35.67
2023-01-31T01:08:09.368Z,29.38
2023-01-31T01:10:36.630Z,36.08
2023-01-31T01:13:04.217Z,34.05
2023-01-31T01:15:31.605Z,30.42
2023-01-31T01:17:58.392Z,28.40
2023-01-31T01:20:25.137Z,32.72
2023-01-31T01:22:51.909Z,28.77
2023-01-31T01:25:18.950Z,32.58
2023-01-31T01:27:45.777Z,24.00
2023-01-31T01:30:12.738Z,27.23
2023-01-31T01:32:39.445Z,27.40
2023-01-31T01:35:06.584Z,28.77
2023-01-31T01:37:33.947Z,26.40
2023-01-31T01:40:00.911Z,36.60
2023-01-31T01:42:33.497Z,30.08
2023-01-31T01:45:01.684Z,31.15
2023-01-31T01:47:44.065Z,28.05
2023-01-31T01:50:22.406Z,26.10
2023-01-31T01:52:55.868Z,30.75
2023-01-31T01:55:37.199Z,28.23
2023-01-31T01:58:19.176Z,22.70
2023-01-31T02:00:48.300Z,22.98
2023-01-31T02:03:16.030Z,27.38
2023-01-31T02:05:47.330Z,25.58
2023-01-31T02:08:18.566Z,24.42
2023-01-31T02:10:51.077Z,30.02
2023-01-31T02:13:18.891Z,30.63
2023-01-31T02:15:46.693Z,30.00
2023-01-31T02:18:14.131Z,27.48
2023-01-31T02:21:02.259Z,23.27
2023-01-31T02:24:01.146Z,31.50
2023-01-31T02:26:49.487Z,35.13
2023-01-31T02:29:18.878Z,23.95
2023-01-31T02:32:13.192Z,25.70
2023-01-31T02:35:01.913Z,33.53
2023-01-31T02:37:53.443Z,27.05
2023-01-31T02:40:32.130Z,25.55
2023-01-31T02:43:21.625Z,25.55
2023-01-31T02:46:04.211Z,26.55
2023-01-31T02:48:52.415Z,25.98
2023-01-31T02:51:33.857Z,27.52
2023-01-31T02:54:15.388Z,23.92
2023-01-31T02:56:45.539Z,27.80
2023-01-31T02:59:24.183Z,33.35
2023-01-31T03:02:02.868Z,28.38
2023-01-31T03:04:33.852Z,24.38
2023-01-31T03:07:13.781Z,25.15
2023-01-31T03:09:56.147Z,25.70
2023-01-31T03:12:41.618Z,27.42
2023-01-31T03:15:41.516Z,25.38
2023-01-31T03:18:14.201Z,22.33
2023-01-31T03:21:08.331Z,24.33
2023-01-31T03:23:37.189Z,25.38
2023-01-31T03:26:06.664Z,24.85
2023-01-31T03:28:35.460Z,26.17
2023-01-31T03:31:19.917Z,26.23
2023-01-31T03:33:52.867Z,22.25
2023-01-31T03:36:42.004Z,23.63
2023-01-31T03:39:27.249Z,23.38
2023-01-31T03:42:04.320Z,24.83
2023-01-31T03:44:49.781Z,22.23
2023-01-31T03:47:23.388Z,25.50
2023-01-31T03:49:52.635Z,27.58
2023-01-31T03:52:27.001Z,24.40
2023-01-31T03:55:05.590Z,28.25
2023-01-31T03:57:36.182Z,36.75
2023-01-31T04:00:06.932Z,25.83
2023-01-31T04:02:37.033Z,24.73
2023-01-31T04:05:11.463Z,22.63
2023-01-31T04:07:38.385Z,25.00
2023-01-31T04:10:11.762Z,24.15
2023-01-31T04:12:38.597Z,23.20
2023-01-31T04:15:06.568Z,25.02
2023-01-31T04:17:33.295Z,25.23
2023-01-31T04:20:00.275Z,28.60
2023-01-31T04:22:27.159Z,34.20
2023-01-31T04:24:53.808Z,30.05
2023-01-31T04:27:20.490Z,28.15
2023-01-31T04:29:47.104Z,31.48
2023-01-31T04:32:13.815Z,24.45
2023-01-31T04:34:40.553Z,24.90
2023-01-31T04:37:07.283Z,29.63
2023-01-31T04:39:34.048Z,31.05
2023-01-31T04:42:00.757Z,21.38
2023-01-31T04:44:27.484Z,26.30
2023-01-31T04:46:54.211Z,23.10
2023-01-31T04:49:20.918Z,27.10
2023-01-31T04:51:47.619Z,28.13
2023-01-31T04:54:14.294Z,26.40
2023-01-31T04:56:41.003Z,29.83
2023-01-31T04:59:07.659Z,23.52
2023-01-31T05:01:34.315Z,29.38
2023-01-31T05:04:01.029Z,26.85
2023-01-31T05:06:27.862Z,27.10
2023-01-31T05:08:54.522Z,35.60
2023-01-31T05:11:21.404Z,30.65
2023-01-31T05:13:48.062Z,27.40
2023-01-31T05:16:14.764Z,24.65
2023-01-31T05:18:41.547Z,32.72
2023-01-31T05:21:08.354Z,29.95
2023-01-31T05:23:35.088Z,23.40
2023-01-31T05:26:02.110Z,21.20
2023-01-31T05:28:28.843Z,33.08
2023-01-31T05:31:03.094Z,27.63
2023-01-31T05:33:30.308Z,29.25
2023-01-31T05:35:57.403Z,31.02
2023-01-31T05:38:24.107Z,27.23
2023-01-31T05:40:51.222Z,32.35
2023-01-31T05:43:17.963Z,25.25
2023-01-31T05:45:44.900Z,31.10
2023-01-31T05:48:11.921Z,27.83
2023-01-31T05:50:38.597Z,24.77
2023-01-31T05:53:05.247Z,23.70
2023-01-31T05:55:32.305Z,22.50
2023-01-31T05:57:59.035Z,27.13
2023-01-31T06:00:25.827Z,24.42
2023-01-31T06:02:52.647Z,25.23
2023-01-31T06:05:19.652Z,28.30
2023-01-31T06:07:46.559Z,27.20
2023-01-31T06:10:13.756Z,30.40
2023-01-31T06:12:40.526Z,33.80
2023-01-31T06:15:13.339Z,31.85
2023-01-31T06:17:40.029Z,25.17
2023-01-31T06:20:07.115Z,29.45
2023-01-31T06:22:34.190Z,30.98
2023-01-31T06:25:00.919Z,26.80
2023-01-31T06:27:27.623Z,35.05
2023-01-31T06:29:54.427Z,33.72
2023-01-31T06:32:21.125Z,39.30
2023-01-31T06:34:47.761Z,29.27
2023-01-31T06:37:14.449Z,31.60
2023-01-31T06:39:41.290Z,29.23
2023-01-31T06:42:07.951Z,26.48
2023-01-31T06:44:34.578Z,30.38
2023-01-31T06:47:01.929Z,26.35
2023-01-31T06:49:28.881Z,30.40
2023-01-31T06:51:55.683Z,30.92
2023-01-31T06:54:22.425Z,30.00
2023-01-31T06:56:49.117Z,26.33
2023-01-31T06:59:15.903Z,27.85
2023-01-31T07:01:42.773Z,25.58
2023-01-31T07:04:09.673Z,25.50
2023-01-31T07:06:36.354Z,18.98
2023-01-31T07:09:03.593Z,23.52
2023-01-31T07:11:30.497Z,21.48
2023-01-31T07:13:57.172Z,21.67
2023-01-31T07:16:23.983Z,26.08
2023-01-31T07:18:55.484Z,30.13
2023-01-31T07:21:24.152Z,30.08
2023-01-31T07:23:51.103Z,26.63
2023-01-31T07:26:17.915Z,25.52
2023-01-31T07:28:44.619Z,28.67
2023-01-31T07:31:13.822Z,26.23
2023-01-31T07:33:40.877Z,20.27
2023-01-31T07:36:08.716Z,27.67
2023-01-31T07:38:35.481Z,25.60
2023-01-31T07:41:03.443Z,30.60
2023-01-31T07:43:31.116Z,25.52
2023-01-31T07:45:58.472Z,25.42
2023-01-31T07:48:25.356Z,25.10
2023-01-31T07:50:53.715Z,30.83
2023-01-31T07:53:20.731Z,26.23
2023-01-31T07:55:47.841Z,29.60
2023-01-31T07:58:15.937Z,26.33
2023-01-31T08:00:43.301Z,29.17
2023-01-31T08:03:25.036Z,36.75
2023-01-31T08:05:52.662Z,24.50
2023-01-31T08:08:19.400Z,23.55
2023-01-31T08:10:46.137Z,28.98
2023-01-31T08:13:12.856Z,32.45
2023-01-31T08:15:39.584Z,25.30
2023-01-31T08:18:06.685Z,27.75
2023-01-31T08:20:34.147Z,27.17
2023-01-31T08:23:00.824Z,31.67
2023-01-31T08:25:28.509Z,28.38
2023-01-31T08:27:57.442Z,25.35
2023-01-31T08:30:24.393Z,32.13
2023-01-31T08:32:51.153Z,24.00
2023-01-31T08:35:18.121Z,25.63
2023-01-31T08:37:44.911Z,24.73
2023-01-31T08:40:12.381Z,22.60
2023-01-31T08:42:39.175Z,29.30
2023-01-31T08:45:06.789Z,24.15
2023-01-31T08:47:33.974Z,20.50
2023-01-31T08:50:00.593Z,21.00
2023-01-31T08:52:27.296Z,24.73
2023-01-31T08:54:53.963Z,18.15
2023-01-31T08:57:20.633Z,28.33
2023-01-31T08:59:47.260Z,23.50
2023-01-31T09:02:14.009Z,28.58
2023-01-31T09:04:40.751Z,24.67
2023-01-31T09:07:07.437Z,26.77
2023-01-31T09:09:34.154Z,28.17
2023-01-31T09:12:00.804Z,24.63
2023-01-31T09:14:27.492Z,26.17
2023-01-31T09:16:54.272Z,30.55
2023-01-31T09:19:21.350Z,38.33
2023-01-31T09:21:47.990Z,23.55
2023-01-31T09:24:15.061Z,27.75
2023-01-31T09:26:41.953Z,26.30
2023-01-31T09:29:08.616Z,27.15
2023-01-31T09:31:35.328Z,27.42
2023-01-31T09:34:01.982Z,34.20
2023-01-31T09:36:28.813Z,29.75
2023-01-31T09:38:56.760Z,29.50
2023-01-31T09:41:43.450Z,26.02
2023-01-31T09:44:33.110Z,27.85
2023-01-31T09:47:10.252Z,29.27
2023-01-31T09:49:46.302Z,33.25
2023-01-31T09:52:13.021Z,28.15
2023-01-31T09:54:41.400Z,31.00
2023-01-31T09:57:29.496Z,31.05
2023-01-31T10:00:28.185Z,31.25
2023-01-31T10:03:17.303Z,31.08
2023-01-31T10:05:56.546Z,29.92
2023-01-31T10:08:52.103Z,33.08
2023-01-31T10:11:31.796Z,34.70
2023-01-31T10:14:07.022Z,30.50
2023-01-31T10:16:55.753Z,28.13
2023-01-31T10:19:29.491Z,32.67
2023-01-31T10:22:04.183Z,30.15
2023-01-31T10:24:42.945Z,25.80
2023-01-31T10:27:30.470Z,27.50
2023-01-31T10:30:00.442Z,28.15
2023-01-31T10:32:41.335Z,31.08
2023-01-31T10:35:34.353Z,30.27
2023-01-31T10:38:12.234Z,26.73
2023-01-31T10:40:42.480Z,31.20
2023-01-31T10:43:18.390Z,31.23
2023-01-31T10:45:45.244Z,31.10
2023-01-31T10:48:23.341Z,31.02
2023-01-31T10:51:17.672Z,25.10
2023-01-31T10:53:53.566Z,24.35
2023-01-31T10:56:22.990Z,28.63
2023-01-31T10:58:50.798Z,24.13
2023-01-31T11:01:18.023Z,31.73
2023-01-31T11:03:53.006Z,31.77
2023-01-31T11:06:21.079Z,28.42
2023-01-31T11:08:49.372Z,26.52
2023-01-31T11:11:24.972Z,27.98
2023-01-31T11:14:04.502Z,28.45
2023-01-31T11:16:37.560Z,28.13
2023-01-31T11:19:23.930Z,26.63
2023-01-31T11:21:52.829Z,32.88
2023-01-31T11:24:25.118Z,29.63
2023-01-31T11:27:09.204Z,39.20
2023-01-31T11:29:41.375Z,32.95
2023-01-31T11:32:23.205Z,28.27
2023-01-31T11:35:20.746Z,30.77
2023-01-31T11:38:14.783Z,28.25
2023-01-31T11:40:41.482Z,35.40
2023-01-31T11:43:30.556Z,35.03
2023-01-31T11:46:03.121Z,33.58
2023-01-31T11:48:43.629Z,35.55
2023-01-31T11:51:13.394Z,32.53
2023-01-31T11:53:43.215Z,29.30
2023-01-31T11:56:16.076Z,26.88
2023-01-31T11:58:44.578Z,31.40
2023-01-31T12:01:21.523Z,33.05
2023-01-31T12:04:03.410Z,30.65
2023-01-31T12:06:39.539Z,32.95
2023-01-31T12:09:27.426Z,33.90
2023-01-31T12:11:59.071Z,25.25
2023-01-31T12:14:38.230Z,40.38
2023-01-31T12:17:05.745Z,33.85
2023-01-31T12:19:54.216Z,33.83
2023-01-31T12:22:47.105Z,35.53
2023-01-31T12:25:23.401Z,29.35
2023-01-31T12:27:55.252Z,31.95
2023-01-31T12:30:52.531Z,37.80
2023-01-31T12:33:51.584Z,36.15
2023-01-31T12:36:36.694Z,34.83
2023-01-31T12:39:22.871Z,29.90
2023-01-31T12:44:46.252Z,30.00
2023-01-31T12:47:24.659Z,33.83
2023-01-31T12:49:51.316Z,32.38
2023-01-31T12:52:36.593Z,33.85
2023-01-31T12:55:34.666Z,32.57
2023-01-31T12:58:35.003Z,32.88
2023-01-31T13:01:06.388Z,40.47
2023-01-31T13:03:39.266Z,40.08
2023-01-31T13:06:22.747Z,41.60
2023-01-31T13:09:07.759Z,36.13
2023-01-31T13:11:44.102Z,38.30
2023-01-31T13:14:45.140Z,38.47
2023-01-31T13:17:17.048Z,41.03
2023-01-31T13:19:52.371Z,49.75
2023-01-31T13:22:41.664Z,38.75
2023-01-31T13:25:39.729Z,33.80
2023-01-31T13:28:18.650Z,35.25
2023-01-31T13:31:00.582Z,32.20
2023-01-31T13:33:36.667Z,38.78
2023-01-31T13:36:19.706Z,35.30
2023-01-31T13:38:47.738Z,39.42
2023-01-31T13:41:25.992Z,30.45
2023-01-31T13:43:52.746Z,28.92
2023-01-31T13:46:24.695Z,25.55
2023-01-31T13:49:03.550Z,25.48
2023-01-31T13:51:43.930Z,29.52
2023-01-31T13:54:10.587Z,27.77
2023-01-31T13:56:40.920Z,31.65
2023-01-31T13:59:09.225Z,30.90
2023-01-31T14:01:47.002Z,30.13
2023-01-31T14:04:13.769Z,24.17
2023-01-31T14:06:52.721Z,28.65
2023-01-31T14:09:30.014Z,23.00
2023-01-31T14:12:02.193Z,21.98
2023-01-31T14:14:38.549Z,20.65
2023-01-31T14:17:10.587Z,23.63
2023-01-31T14:19:43.280Z,23.17
2023-01-31T14:22:18.988Z,21.38
2023-01-31T14:27:22.961Z,18.75
2023-01-31T14:30:04.484Z,17.63
2023-01-31T14:32:42.422Z,16.23
2023-01-31T14:35:43.057Z,14.93
2023-01-31T14:38:34.516Z,15.88
2023-01-31T14:41:19.238Z,15.20
2023-01-31T14:44:01.606Z,14.38
2023-01-31T14:46:34.041Z,16.67
2023-01-31T14:49:43.171Z,16.25
2023-01-31T14:52:18.608Z,13.20
2023-01-31T14:54:57.586Z,15.13
2023-01-31T14:57:34.010Z,18.30
2023-01-31T15:00:14.836Z,17.83
2023-01-31T15:02:41.579Z,15.23
2023-01-31T15:05:15.815Z,15.65
2023-01-31T15:08:26.686Z,17.23
2023-01-31T15:11:00.862Z,14.98
2023-01-31T15:13:49.476Z,11.27
2023-01-31T15:16:21.225Z,14.68
2023-01-31T15:19:12.522Z,16.48
2023-01-31T15:21:55.465Z,16.75
2023-01-31T15:24:46.405Z,18.25
2023-01-31T15:27:15.979Z,18.55
2023-01-31T15:30:03.713Z,19.70
2023-01-31T15:32:37.349Z,14.27
2023-01-31T15:35:15.639Z,20.10
2023-01-31T15:37:42.767Z,17.65
2023-01-31T15:40:22.635Z,20.52
2023-01-31T15:42:49.508Z,15.52
2023-01-31T15:45:30.597Z,18.98
2023-01-31T15:48:13.310Z,13.35
2023-01-31T15:50:58.621Z,20.38
2023-01-31T15:53:27.936Z,20.90
2023-01-31T15:55:57.777Z,17.67
2023-01-31T15:58:26.957Z,17.10
2023-01-31T16:00:58.909Z,14.80
2023-01-31T16:03:31.924Z,16.48
2023-01-31T16:05:59.894Z,14.68
2023-01-31T16:08:37.420Z,17.23
2023-01-31T16:11:09.590Z,21.65
2023-01-31T16:13:41.180Z,14.20
2023-01-31T16:16:10.378Z,18.63
2023-01-31T16:18:37.809Z,15.88
2023-01-31T16:21:15.491Z,19.58
2023-01-31T16:23:42.911Z,18.92
2023-01-31T16:26:17.498Z,18.17
2023-01-31T16:28:46.427Z,17.92
2023-01-31T16:31:15.658Z,15.10
2023-01-31T16:34:01.331Z,19.08
2023-01-31T16:36:33.249Z,19.17
2023-01-31T16:39:06.005Z,17.95
2023-01-31T16:41:41.343Z,16.48
2023-01-31T16:44:17.986Z,19.52
2023-01-31T16:46:46.220Z,19.08
2023-01-31T16:49:35.430Z,15.82
2023-01-31T16:52:26.658Z,18.20
2023-01-31T16:54:54.882Z,22.35
2023-01-31T16:57:38.427Z,24.45
2023-01-31T17:00:28.166Z,21.73
2023-01-31T17:02:57.232Z,20.02
2023-01-31T17:05:40.301Z,16.60
2023-01-31T17:08:18.450Z,19.60
2023-01-31T17:10:46.947Z,22.15
2023-01-31T17:13:20.874Z,19.08
2023-01-31T17:15:48.421Z,23.88
2023-01-31T17:18:15.665Z,22.05
2023-01-31T17:20:45.071Z,21.65
2023-01-31T17:23:12.732Z,20.48
2023-01-31T17:25:40.731Z,22.75
2023-01-31T17:28:07.458Z,22.98
2023-01-31T17:30:41.935Z,24.30
2023-01-31T17:33:14.352Z,22.58
2023-01-31T17:35:44.455Z,23.42
2023-01-31T17:38:11.138Z,22.23
2023-01-31T17:40:40.001Z,24.05
2023-01-31T17:43:06.972Z,21.58
2023-01-31T17:45:36.053Z,22.52
2023-01-31T17:48:02.749Z,19.88
2023-01-31T17:50:29.677Z,21.50
2023-01-31T17:52:56.475Z,20.83
2023-01-31T17:55:23.759Z,20.38
2023-01-31T17:57:51.104Z,21.25
2023-01-31T18:00:19.307Z,20.02
2023-01-31T18:02:46.149Z,21.52
2023-01-31T18:05:15.468Z,20.95
2023-01-31T18:07:42.539Z,22.05
2023-01-31T18:10:10.016Z,19.95
2023-01-31T18:12:36.749Z,17.25
2023-01-31T18:15:03.553Z,16.95
2023-01-31T18:17:30.394Z,16.40
2023-01-31T18:19:57.086Z,19.70
2023-01-31T18:22:23.926Z,17.80
2023-01-31T18:24:50.661Z,19.90
2023-01-31T18:27:17.431Z,14.95
2023-01-31T18:29:44.323Z,16.15
2023-01-31T18:32:11.025Z,14.30
2023-01-31T18:34:38.270Z,15.93
2023-01-31T18:37:06.947Z,19.48
2023-01-31T18:39:34.002Z,16.35
2023-01-31T18:42:00.732Z,15.13
2023-01-31T18:44:27.433Z,13.93
2023-01-31T18:46:54.207Z,16.88
2023-01-31T18:49:20.980Z,17.10
2023-01-31T18:51:47.691Z,18.90
2023-01-31T18:54:14.389Z,14.05
2023-01-31T18:56:41.105Z,15.55
2023-01-31T18:59:07.801Z,13.48
2023-01-31T19:01:34.489Z,14.45
2023-01-31T19:04:01.216Z,17.98
2023-01-31T19:06:33.138Z,17.38
2023-01-31T19:08:59.837Z,15.52
2023-01-31T19:11:28.828Z,14.52
2023-01-31T19:13:55.977Z,16.77
2023-01-31T19:16:28.376Z,15.05
2023-01-31T19:18:56.389Z,13.27
2023-01-31T19:21:28.615Z,14.98
2023-01-31T19:23:57.440Z,14.15
2023-01-31T19:26:24.558Z,20.42
2023-01-31T19:28:51.934Z,16.88
2023-01-31T19:31:22.475Z,21.02
2023-01-31T19:33:52.147Z,12.27
2023-01-31T19:36:21.966Z,9.43
2023-01-31T19:38:48.956Z,9.02
2023-01-31T19:41:18.687Z,8.15
2023-01-31T19:43:50.154Z,8.00
2023-01-31T19:46:17.806Z,16.05
2023-01-31T19:48:44.960Z,15.35
2023-01-31T19:51:14.426Z,16.05
2023-01-31T19:53:41.885Z,15.20
2023-01-31T19:56:08.988Z,16.10
2023-01-31T19:58:36.820Z,15.93
2023-01-31T20:01:12.294Z,16.10
2023-01-31T20:03:39.229Z,14.60
2023-01-31T20:06:08.957Z,14.55
2023-01-31T20:08:36.222Z,15.82
2023-01-31T20:11:03.991Z,17.65
2023-01-31T20:13:30.733Z,16.60
2023-01-31T20:16:03.472Z,17.15
2023-01-31T20:18:30.732Z,19.35
2023-01-31T20:20:57.458Z,23.90
2023-01-31T20:23:24.230Z,21.98
2023-01-31T20:25:52.316Z,14.65
2023-01-31T20:28:20.272Z,25.60
2023-01-31T20:30:47.381Z,22.17
2023-01-31T20:33:15.569Z,18.98
2023-01-31T20:35:42.926Z,18.55
2023-01-31T20:38:11.113Z,15.90
2023-01-31T20:40:38.850Z,20.92
2023-01-31T20:43:06.152Z,19.15
2023-01-31T20:45:33.815Z,22.25
2023-01-31T20:48:00.887Z,21.05
2023-01-31T20:50:28.077Z,27.30
2023-01-31T20:52:55.821Z,20.88
2023-01-31T20:55:24.005Z,27.85
2023-01-31T20:57:51.356Z,23.63
2023-01-31T21:00:20.097Z,28.00
2023-01-31T21:02:47.884Z,23.45
2023-01-31T21:05:15.795Z,23.95
2023-01-31T21:07:42.532Z,22.60
2023-01-31T21:10:10.510Z,23.25
2023-01-31T21:12:37.279Z,26.75
2023-01-31T21:15:04.338Z,23.80
2023-01-31T21:17:40.043Z,23.52
2023-01-31T21:20:09.799Z,31.17
2023-01-31T21:22:36.589Z,32.08
2023-01-31T21:25:03.659Z,25.55
2023-01-31T21:27:30.514Z,24.92
2023-01-31T21:29:57.497Z,26.33
2023-01-31T21:32:24.282Z,25.25
2023-01-31T21:34:51.031Z,32.17
2023-01-31T21:37:17.760Z,25.95
2023-01-31T21:39:44.446Z,30.40
2023-01-31T21:42:13.335Z,29.20
2023-01-31T21:44:40.475Z,32.20
2023-01-31T21:47:07.161Z,21.80
2023-01-31T21:49:33.925Z,23.05
2023-01-31T21:52:01.132Z,11.20
2023-01-31T21:54:27.988Z,15.05
2023-01-31T21:56:54.742Z,11.88
2023-01-31T21:59:21.661Z,9.25
2023-01-31T22:01:48.511Z,12.93
2023-01-31T22:04:15.279Z,16.05
2023-01-31T22:06:42.323Z,11.75
2023-01-31T22:09:13.209Z,13.80
2023-01-31T22:11:40.229Z,11.80
2023-01-31T22:14:10.046Z,10.95
2023-01-31T22:16:44.496Z,10.88
2023-01-31T22:19:13.032Z,12.02
2023-01-31T22:21:42.583Z,11.63
2023-01-31T22:24:10.215Z,14.73
2023-01-31T22:26:40.385Z,13.27
2023-01-31T22:29:14.199Z,18.20
2023-01-31T22:31:41.511Z,15.68
2023-01-31T22:34:12.591Z,15.40
2023-01-31T22:36:40.824Z,22.55
2023-01-31T22:39:12.871Z,21.83
2023-01-31T22:41:39.680Z,17.15
2023-01-31T22:44:06.512Z,21.45
2023-01-31T22:46:35.828Z,24.30
2023-01-31T22:49:02.647Z,26.65
2023-01-31T22:51:29.374Z,22.42
2023-01-31T22:53:57.747Z,29.67
2023-01-31T22:56:28.131Z,27.63
2023-01-31T22:59:00.549Z,29.70
2023-01-31T23:01:30.570Z,34.45
2023-01-31T23:04:02.146Z,35.05
2023-01-31T23:06:29.173Z,32.42
2023-01-31T23:08:56.567Z,33.53
2023-01-31T23:11:23.956Z,35.65
2023-01-31T23:13:50.971Z,32.15
2023-01-31T23:16:21.123Z,37.65
2023-01-31T23:18:48.178Z,36.08
2023-01-31T23:21:18.063Z,23.23
2023-01-31T23:23:45.638Z,35.38
2023-01-31T23:26:13.140Z,42.88
2023-01-31T23:28:39.999Z,39.00
2023-01-31T23:31:06.914Z,40.05
2023-01-31T23:33:33.763Z,35.80
2023-01-31T23:36:00.467Z,26.83
2023-01-31T23:38:27.139Z,37.28
2023-01-31T23:40:54.421Z,32.25
2023-01-31T23:43:22.273Z,36.22
2023-01-31T23:45:49.118Z,39.25
2023-01-31T23:48:16.034Z,40.47
2023-01-31T23:50:42.735Z,34.33
2023-01-31T23:53:09.564Z,36.90
2023-01-31T23:55:36.261Z,37.60
2023-01-31T23:58:03.006Z,35.80
